Mermaid Express — H9PV — position and weather

sailwx.info

Track history (hours):
 
Tides and Currents Weather Stations Pressure Air Temp Water Temp Dewpoint Dewpoint Depression Visibility Wind Speed Wind Dir Waves Ship Positions

Mermaid Express

Last reported at 2015-Mar-28 11:21 UTC. Time now 2015-Apr-02 00:09 UTC.
Position N 09°26' W 017°05'.

Length 179 m; draft 11.2 m.

Type: Tanker. MMSI: 352866000.

Date/timePositionNaut miles runAvg speedWind from/ knotsBaromVisibWave heightAir tempDewpointWater temp
2015-Mar-28 11:21N 09°26' W 017°05'1013.1
2015-Mar-28 10:33N 09°34' W 017°12'1312.9
2015-Mar-28 09:33N 09°42' W 017°22'  
2015-Mar-24 18:13N 27°31' W 015°15'913.3
2015-Mar-24 17:33N 27°39' W 015°12'1312.9
2015-Mar-24 16:33N 27°51' W 015°07'1313.0
2015-Mar-24 15:33N 28°03' W 015°02'1312.9
2015-Mar-24 14:33N 28°15' W 014°56'1313.0
2015-Mar-24 13:33N 28°27' W 014°52'1313.2
2015-Mar-24 12:33N 28°40' W 014°49'  
2015-Mar-19 15:14N 50°27' W 000°14'1315.1
2015-Mar-19 14:24N 50°31' E 000°05'1315.0
2015-Mar-19 13:33N 50°34' E 000°24'1414.1
2015-Mar-19 12:33N 50°41' E 000°44'1312.9
2015-Mar-19 11:33N 50°49' E 000°60'1211.7
2015-Mar-19 10:33N 50°57' E 001°14'10 9.7
2015-Mar-19 09:33N 51°03' E 001°25'1010.0
2015-Mar-19 08:33N 51°09' E 001°38'1211.6
2015-Mar-19 07:33N 51°18' E 001°50'1010.2
2015-Mar-19 06:33N 51°25' E 002°03'9 9.4
2015-Mar-19 05:33N 51°20' E 002°16'1413.9
2015-Mar-19 04:34N 51°23' E 002°38'1211.8
2015-Mar-19 03:34N 51°25' E 002°57'1313.2
2015-Mar-19 02:33N 51°25' E 003°18'1211.6
2015-Mar-19 01:33N 51°26' E 003°36'9 9.4
2015-Mar-19 00:34N 51°21' E 003°49'9 8.6
2015-Mar-18 23:34N 51°26' E 003°60'8 7.7
2015-Mar-18 22:34N 51°24' E 004°11'5 4.9
2015-Mar-18 21:34N 51°21' E 004°17'0 0.0
2015-Mar-18 20:34N 51°21' E 004°17'2 2.1
2015-Mar-18 19:33N 51°19' E 004°19'3 2.7
2015-Mar-18 18:34N 51°16' E 004°21'0 0.0
2015-Mar-18 17:34N 51°16' E 004°21'0 0.0
2015-Mar-18 16:33N 51°16' E 004°21'0 0.0
2015-Mar-18 15:33N 51°16' E 004°21'0 0.0
2015-Mar-18 14:33N 51°16' E 004°21'0 0.0
2015-Mar-18 13:33N 51°16' E 004°21'0 0.0
2015-Mar-18 12:33N 51°16' E 004°21'0 0.0
2015-Mar-18 11:33N 51°16' E 004°21'  
Track history (hours):
 
Tides and Currents Weather Stations Pressure Air Temp Water Temp Dewpoint Dewpoint Depression Visibility Wind Speed Wind Dir Waves Ship Positions

Mermaid Express

Last reported at 2015-Mar-28 11:21 UTC. Time now 2015-Apr-02 00:09 UTC.
Position N 09°26' W 017°05'.

Length 179 m; draft 11.2 m.

Type: Tanker. MMSI: 352866000.

Date/timePositionNaut miles runAvg speedWind from/ knotsBaromVisibWave heightAir tempDewpointWater temp
2015-Mar-28 11:21N 09°26' W 017°05'1013.1
2015-Mar-28 10:33N 09°34' W 017°12'1312.9
2015-Mar-28 09:33N 09°42' W 017°22'  
2015-Mar-24 18:13N 27°31' W 015°15'913.3
2015-Mar-24 17:33N 27°39' W 015°12'1312.9
2015-Mar-24 16:33N 27°51' W 015°07'1313.0
2015-Mar-24 15:33N 28°03' W 015°02'1312.9
2015-Mar-24 14:33N 28°15' W 014°56'1313.0
2015-Mar-24 13:33N 28°27' W 014°52'1313.2
2015-Mar-24 12:33N 28°40' W 014°49'  
2015-Mar-19 15:14N 50°27' W 000°14'1315.1
2015-Mar-19 14:24N 50°31' E 000°05'1315.0
2015-Mar-19 13:33N 50°34' E 000°24'1414.1
2015-Mar-19 12:33N 50°41' E 000°44'1312.9
2015-Mar-19 11:33N 50°49' E 000°60'1211.7
2015-Mar-19 10:33N 50°57' E 001°14'10 9.7
2015-Mar-19 09:33N 51°03' E 001°25'1010.0
2015-Mar-19 08:33N 51°09' E 001°38'1211.6
2015-Mar-19 07:33N 51°18' E 001°50'1010.2
2015-Mar-19 06:33N 51°25' E 002°03'9 9.4
2015-Mar-19 05:33N 51°20' E 002°16'1413.9
2015-Mar-19 04:34N 51°23' E 002°38'1211.8
2015-Mar-19 03:34N 51°25' E 002°57'1313.2
2015-Mar-19 02:33N 51°25' E 003°18'1211.6
2015-Mar-19 01:33N 51°26' E 003°36'9 9.4
2015-Mar-19 00:34N 51°21' E 003°49'9 8.6
2015-Mar-18 23:34N 51°26' E 003°60'8 7.7
2015-Mar-18 22:34N 51°24' E 004°11'5 4.9
2015-Mar-18 21:34N 51°21' E 004°17'0 0.0
2015-Mar-18 20:34N 51°21' E 004°17'2 2.1
2015-Mar-18 19:33N 51°19' E 004°19'3 2.7
2015-Mar-18 18:34N 51°16' E 004°21'0 0.0
2015-Mar-18 17:34N 51°16' E 004°21'0 0.0
2015-Mar-18 16:33N 51°16' E 004°21'0 0.0
2015-Mar-18 15:33N 51°16' E 004°21'0 0.0
2015-Mar-18 14:33N 51°16' E 004°21'0 0.0
2015-Mar-18 13:33N 51°16' E 004°21'0 0.0
2015-Mar-18 12:33N 51°16' E 004°21'0 0.0
2015-Mar-18 11:33N 51°16' E 004°21'  

Dump ship's entire track history